createdAt,value
2023-02-05T00:01:41.780Z,4.60
2023-02-05T00:04:09.265Z,4.80
2023-02-05T00:06:36.787Z,7.57
2023-02-05T00:09:04.257Z,6.60
2023-02-05T00:11:33.071Z,5.47
2023-02-05T00:14:00.566Z,6.10
2023-02-05T00:16:28.168Z,7.23
2023-02-05T00:18:55.783Z,7.07
2023-02-05T00:21:24.574Z,6.27
2023-02-05T00:23:52.063Z,6.40
2023-02-05T00:26:19.591Z,5.07
2023-02-05T00:28:48.447Z,4.70
2023-02-05T00:31:19.684Z,3.97
2023-02-05T00:33:48.347Z,3.83
2023-02-05T00:36:17.041Z,3.70
2023-02-05T00:38:46.039Z,3.90
2023-02-05T00:41:14.779Z,3.50
2023-02-05T00:43:43.037Z,3.57
2023-02-05T00:46:13.448Z,3.80
2023-02-05T00:48:42.707Z,3.33
2023-02-05T00:51:10.623Z,3.70
2023-02-05T00:53:38.889Z,3.50
2023-02-05T00:56:06.899Z,3.77
2023-02-05T00:58:34.585Z,3.97
2023-02-05T01:01:02.083Z,4.00
2023-02-05T01:03:31.047Z,4.40
2023-02-05T01:05:59.427Z,4.00
2023-02-05T01:08:26.876Z,3.90
2023-02-05T01:10:54.345Z,4.30
2023-02-05T01:13:21.824Z,3.20
2023-02-05T01:15:49.304Z,3.50
2023-02-05T01:18:17.038Z,3.97
2023-02-05T01:20:45.906Z,3.50
2023-02-05T01:23:13.389Z,2.87
2023-02-05T01:25:40.979Z,3.13
2023-02-05T01:28:08.525Z,3.10
2023-02-05T01:30:36.443Z,3.10
2023-02-05T01:33:04.421Z,3.53
2023-02-05T01:35:32.532Z,3.00
2023-02-05T01:38:01.661Z,3.10
2023-02-05T01:40:29.125Z,3.70
2023-02-05T01:42:56.608Z,3.60
2023-02-05T01:45:56.210Z,3.13
2023-02-05T01:48:28.023Z,3.83
2023-02-05T01:51:00.390Z,3.10
2023-02-05T01:53:32.595Z,3.23
2023-02-05T01:56:02.453Z,3.33
2023-02-05T01:58:34.732Z,3.40
2023-02-05T02:01:02.201Z,3.00
2023-02-05T02:03:32.132Z,3.50
2023-02-05T02:06:00.259Z,3.07
2023-02-05T02:08:29.601Z,3.07
2023-02-05T02:10:59.128Z,3.47
2023-02-05T02:13:28.917Z,3.20
2023-02-05T02:15:57.842Z,3.13
2023-02-05T02:18:28.975Z,3.17
2023-02-05T02:21:28.348Z,3.30
2023-02-05T02:24:50.034Z,3.20
2023-02-05T02:27:41.581Z,4.27
2023-02-05T02:30:15.637Z,4.10
2023-02-05T02:32:51.661Z,3.47
2023-02-05T02:35:26.596Z,4.40
2023-02-05T02:38:00.924Z,3.50
2023-02-05T02:40:36.747Z,3.50
2023-02-05T02:43:10.193Z,3.20
2023-02-05T02:45:49.968Z,4.23
2023-02-05T02:48:22.747Z,3.90
2023-02-05T02:50:53.786Z,4.03
2023-02-05T02:53:25.054Z,3.77
2023-02-05T02:55:54.796Z,4.83
2023-02-05T02:58:26.439Z,5.23
2023-02-05T03:00:55.078Z,5.90
2023-02-05T03:03:27.395Z,5.27
2023-02-05T03:05:58.254Z,5.47
2023-02-05T03:08:31.257Z,7.10
2023-02-05T03:11:04.238Z,6.07
2023-02-05T03:13:33.234Z,5.70
2023-02-05T03:16:01.432Z,5.20
2023-02-05T03:18:30.443Z,5.23
2023-02-05T03:21:01.254Z,5.10
2023-02-05T03:23:29.646Z,4.93
2023-02-05T03:25:57.238Z,5.03
2023-02-05T03:28:24.962Z,4.50
2023-02-05T03:31:05.166Z,4.60
2023-02-05T03:33:47.994Z,4.57
2023-02-05T03:36:21.645Z,3.80
2023-02-05T03:39:03.545Z,3.63
2023-02-05T03:41:54.951Z,3.90
2023-02-05T03:44:49.532Z,4.10
2023-02-05T03:47:33.635Z,3.83
2023-02-05T03:50:11.914Z,4.10
2023-02-05T03:52:44.928Z,4.03
2023-02-05T03:55:18.283Z,3.50
2023-02-05T03:57:53.644Z,4.00
2023-02-05T04:00:21.557Z,3.97
2023-02-05T04:02:50.356Z,3.53
2023-02-05T04:05:20.943Z,3.97
2023-02-05T04:07:48.473Z,4.07
2023-02-05T04:10:16.524Z,4.10
2023-02-05T04:12:43.979Z,4.37
2023-02-05T04:15:11.796Z,3.70
2023-02-05T04:17:39.310Z,3.37
2023-02-05T04:20:09.520Z,4.10
2023-02-05T04:22:37.013Z,3.60
2023-02-05T04:25:04.794Z,3.90
2023-02-05T04:27:32.281Z,3.90
2023-02-05T04:29:59.763Z,3.70
2023-02-05T04:32:27.317Z,3.57
2023-02-05T04:34:54.772Z,3.57
2023-02-05T04:37:24.946Z,4.20
2023-02-05T04:39:52.489Z,4.30
2023-02-05T04:42:20.113Z,4.20
2023-02-05T04:44:47.588Z,3.67
2023-02-05T04:47:15.076Z,3.60
2023-02-05T04:49:42.552Z,3.60
2023-02-05T04:52:10.028Z,3.60
2023-02-05T04:54:39.307Z,3.50
2023-02-05T04:57:06.763Z,3.90
2023-02-05T04:59:34.256Z,3.37
2023-02-05T05:02:01.775Z,3.60
2023-02-05T05:04:29.250Z,3.93
2023-02-05T05:06:56.711Z,3.50
2023-02-05T05:09:25.276Z,3.60
2023-02-05T05:11:54.770Z,3.80
2023-02-05T05:14:22.202Z,3.80
2023-02-05T05:16:50.239Z,3.67
2023-02-05T05:19:17.800Z,3.53
2023-02-05T05:21:45.306Z,3.53
2023-02-05T05:24:12.811Z,4.00
2023-02-05T05:26:43.742Z,4.10
2023-02-05T05:29:13.654Z,5.13
2023-02-05T05:31:41.509Z,6.50
2023-02-05T05:34:09.017Z,4.67
2023-02-05T05:36:36.505Z,3.60
2023-02-05T05:39:18.090Z,3.80
2023-02-05T05:42:03.371Z,4.60
2023-02-05T05:44:32.182Z,4.00
2023-02-05T05:46:59.682Z,4.13
2023-02-05T05:49:27.223Z,4.27
2023-02-05T05:51:54.829Z,4.47
2023-02-05T05:54:22.306Z,4.30
2023-02-05T05:56:50.212Z,4.77
2023-02-05T05:59:17.828Z,4.33
2023-02-05T06:01:46.686Z,4.73
2023-02-05T06:04:14.165Z,4.27
2023-02-05T06:06:42.438Z,4.30
2023-02-05T06:09:09.987Z,4.17
2023-02-05T06:11:37.469Z,4.17
2023-02-05T06:14:05.306Z,4.17
2023-02-05T06:16:32.812Z,3.87
2023-02-05T06:19:01.698Z,3.30
2023-02-05T06:21:29.157Z,3.10
2023-02-05T06:23:56.626Z,3.20
2023-02-05T06:26:24.145Z,3.87
2023-02-05T06:28:51.642Z,3.37
2023-02-05T06:31:19.209Z,3.47
2023-02-05T06:33:46.726Z,3.70
2023-02-05T06:36:15.518Z,3.60
2023-02-05T06:38:42.977Z,4.00
2023-02-05T06:41:10.434Z,4.00
2023-02-05T06:43:37.912Z,3.93
2023-02-05T06:46:05.702Z,3.73
2023-02-05T06:48:33.190Z,3.60
2023-02-05T06:51:00.644Z,4.23
2023-02-05T06:53:29.479Z,4.17
2023-02-05T06:55:59.228Z,4.47
2023-02-05T06:58:26.762Z,14.47
2023-02-05T07:00:54.219Z,9.63
2023-02-05T07:03:21.714Z,8.77
2023-02-05T07:05:49.193Z,9.07
2023-02-05T07:08:17.032Z,7.60
2023-02-05T07:10:45.830Z,11.27
2023-02-05T07:13:13.364Z,13.93
2023-02-05T07:15:40.831Z,10.73
2023-02-05T07:18:08.288Z,9.23
2023-02-05T07:20:35.846Z,8.20
2023-02-05T07:23:03.301Z,9.10
2023-02-05T07:25:36.268Z,9.23
2023-02-05T07:28:05.930Z,6.27
2023-02-05T07:30:33.698Z,7.03
2023-02-05T07:33:03.398Z,7.20
2023-02-05T07:35:31.090Z,7.60
2023-02-05T07:37:58.595Z,7.27
2023-02-05T07:40:26.125Z,12.90
2023-02-05T07:42:53.582Z,9.03
2023-02-05T07:45:22.371Z,11.10
2023-02-05T07:47:50.772Z,12.27
2023-02-05T07:50:18.712Z,13.17
2023-02-05T07:52:46.184Z,12.63
2023-02-05T07:55:13.616Z,11.23
2023-02-05T07:57:41.602Z,14.37
2023-02-05T08:00:10.637Z,15.60
2023-02-05T08:02:39.646Z,16.33
2023-02-05T08:05:08.186Z,12.57
2023-02-05T08:07:37.285Z,15.13
2023-02-05T08:10:05.696Z,16.03
2023-02-05T08:12:33.208Z,13.20
2023-02-05T08:15:00.669Z,15.67
2023-02-05T08:17:28.167Z,12.30
2023-02-05T08:19:56.947Z,13.10
2023-02-05T08:22:24.454Z,10.47
2023-02-05T08:24:51.976Z,9.10
2023-02-05T08:27:19.473Z,9.83
2023-02-05T08:29:48.208Z,7.77
2023-02-05T08:32:15.742Z,9.00
2023-02-05T08:34:43.217Z,9.53
2023-02-05T08:37:12.285Z,15.80
2023-02-05T08:39:39.762Z,11.60
2023-02-05T08:42:07.276Z,11.70
2023-02-05T08:44:34.738Z,5.40
2023-02-05T08:47:02.190Z,5.07
2023-02-05T08:49:29.671Z,5.57
2023-02-05T08:51:58.110Z,7.33
2023-02-05T08:54:27.038Z,7.93
2023-02-05T08:56:54.513Z,9.53
2023-02-05T08:59:22.391Z,73.43
2023-02-05T09:01:50.120Z,77.97
2023-02-05T09:04:19.784Z,63.87
2023-02-05T09:06:48.020Z,49.70
2023-02-05T09:09:15.900Z,61.63
2023-02-05T09:11:46.636Z,68.80
2023-02-05T09:14:14.790Z,69.73
2023-02-05T09:16:42.964Z,58.97
2023-02-05T09:19:10.669Z,58.60
2023-02-05T09:21:38.104Z,57.60
2023-02-05T09:24:05.971Z,49.70
2023-02-05T09:26:33.679Z,46.20
2023-02-05T09:29:03.694Z,56.33
2023-02-05T09:31:31.377Z,47.23
2023-02-05T09:33:58.963Z,33.60
2023-02-05T09:36:26.655Z,34.70
2023-02-05T09:39:11.921Z,45.40
2023-02-05T09:41:48.948Z,26.13
2023-02-05T09:44:26.544Z,11.47
2023-02-05T09:47:02.527Z,8.87
2023-02-05T09:49:35.714Z,11.13
2023-02-05T09:52:05.986Z,6.43
2023-02-05T09:54:37.529Z,9.20
2023-02-05T09:57:09.014Z,5.37
2023-02-05T09:59:38.505Z,4.03
2023-02-05T10:02:25.924Z,8.30
2023-02-05T10:04:54.781Z,7.13
2023-02-05T10:07:38.243Z,13.93
2023-02-05T10:10:22.407Z,12.63
2023-02-05T10:13:16.886Z,20.13
2023-02-05T10:16:02.784Z,22.23
2023-02-05T10:18:44.417Z,48.63
2023-02-05T10:21:28.601Z,13.33
2023-02-05T10:24:15.481Z,6.43
2023-02-05T10:26:49.390Z,2.80
2023-02-05T10:29:28.366Z,4.10
2023-02-05T10:32:08.754Z,4.90
2023-02-05T10:34:49.906Z,5.83
2023-02-05T10:37:19.801Z,5.77
2023-02-05T10:39:49.048Z,5.20
2023-02-05T10:42:27.332Z,5.60
2023-02-05T10:45:04.454Z,5.90
2023-02-05T10:47:49.391Z,4.90
2023-02-05T10:50:23.995Z,5.30
2023-02-05T10:52:51.938Z,5.40
2023-02-05T10:55:19.714Z,5.40
2023-02-05T10:57:47.273Z,4.83
2023-02-05T11:00:17.804Z,4.73
2023-02-05T11:02:50.415Z,5.47
2023-02-05T11:05:24.045Z,5.33
2023-02-05T11:07:55.240Z,5.47
2023-02-05T11:10:24.772Z,5.60
2023-02-05T11:12:55.819Z,5.60
2023-02-05T11:15:26.105Z,5.00
2023-02-05T11:18:00.042Z,4.67
2023-02-05T11:20:30.691Z,4.73
2023-02-05T11:23:10.529Z,5.40
2023-02-05T11:25:38.047Z,4.53
2023-02-05T11:28:06.065Z,4.00
2023-02-05T11:30:50.748Z,4.47
2023-02-05T11:33:32.295Z,4.20
2023-02-05T11:36:03.076Z,4.07
2023-02-05T11:38:39.965Z,3.60
2023-02-05T11:41:09.162Z,3.60
2023-02-05T11:43:39.250Z,4.07
2023-02-05T11:46:10.080Z,3.30
2023-02-05T11:48:44.246Z,3.33
2023-02-05T11:51:15.200Z,2.90
2023-02-05T11:53:51.545Z,3.10
2023-02-05T11:56:24.955Z,3.10
2023-02-05T11:59:00.903Z,3.30
2023-02-05T12:01:32.355Z,3.10
2023-02-05T12:04:02.927Z,3.20
2023-02-05T12:06:36.977Z,3.17
2023-02-05T12:09:05.000Z,3.20
2023-02-05T12:12:03.948Z,2.80
2023-02-05T12:14:41.213Z,2.80
2023-02-05T12:17:26.043Z,2.97
2023-02-05T12:20:05.243Z,3.23
2023-02-05T12:22:56.487Z,3.27
2023-02-05T12:25:29.808Z,3.07
2023-02-05T12:28:18.541Z,2.70
2023-02-05T12:30:57.972Z,3.10
2023-02-05T12:33:43.951Z,2.80
2023-02-05T12:36:30.105Z,2.93
2023-02-05T12:39:13.482Z,2.97
2023-02-05T12:41:50.053Z,2.97
2023-02-05T12:44:34.609Z,3.57
2023-02-05T12:47:14.724Z,3.03
2023-02-05T12:50:07.821Z,2.80
2023-02-05T12:52:54.443Z,2.90
2023-02-05T12:55:33.128Z,2.70
2023-02-05T12:58:04.070Z,2.97
2023-02-05T13:00:37.286Z,2.73
2023-02-05T13:03:09.764Z,2.67
2023-02-05T13:05:41.852Z,2.70
2023-02-05T13:08:20.080Z,2.90
2023-02-05T13:10:54.468Z,3.23
2023-02-05T13:13:31.298Z,2.57
2023-02-05T13:16:03.937Z,3.00
2023-02-05T13:18:36.511Z,2.60
2023-02-05T13:21:25.734Z,2.50
2023-02-05T13:24:36.146Z,2.90
2023-02-05T13:27:23.757Z,2.87
2023-02-05T13:29:53.846Z,3.70
2023-02-05T13:32:25.169Z,3.90
2023-02-05T13:34:54.688Z,3.50
2023-02-05T13:37:42.638Z,3.57
2023-02-05T13:40:43.701Z,3.63
2023-02-05T13:43:39.369Z,4.00
2023-02-05T13:46:37.306Z,3.73
2023-02-05T13:49:52.092Z,4.07
2023-02-05T13:52:58.180Z,3.53
2023-02-05T13:56:04.701Z,4.80
2023-02-05T13:58:35.003Z,5.07
2023-02-05T14:01:06.502Z,4.90
2023-02-05T14:03:38.138Z,4.80
2023-02-05T14:06:23.843Z,4.30
2023-02-05T14:08:57.658Z,4.90
2023-02-05T14:11:26.787Z,4.57
2023-02-05T14:14:25.960Z,5.03
2023-02-05T14:16:54.900Z,4.70
2023-02-05T14:19:25.628Z,4.73
2023-02-05T14:22:13.602Z,5.90
2023-02-05T14:24:47.372Z,5.30
2023-02-05T14:27:48.797Z,4.73
2023-02-05T14:30:38.583Z,5.70
2023-02-05T14:33:27.982Z,4.87
2023-02-05T14:35:57.406Z,5.10
2023-02-05T14:38:28.883Z,5.23
2023-02-05T14:41:06.242Z,4.97
2023-02-05T14:43:37.275Z,5.00
2023-02-05T14:46:08.230Z,4.73
2023-02-05T14:48:42.733Z,4.77
2023-02-05T14:51:29.136Z,4.20
2023-02-05T14:53:59.601Z,4.50
2023-02-05T14:56:33.959Z,4.23
2023-02-05T14:59:07.224Z,4.00
2023-02-05T15:01:46.591Z,4.23
2023-02-05T15:04:39.088Z,4.60
2023-02-05T15:07:13.767Z,4.20
2023-02-05T15:09:45.444Z,3.77
2023-02-05T15:12:32.216Z,4.03
2023-02-05T15:15:16.991Z,4.70
2023-02-05T15:17:52.704Z,3.80
2023-02-05T15:20:33.743Z,4.40
2023-02-05T15:23:21.965Z,4.20
2023-02-05T15:25:56.826Z,4.03
2023-02-05T15:28:33.075Z,3.97
2023-02-05T15:31:17.961Z,4.30
2023-02-05T15:33:53.325Z,4.40
2023-02-05T15:36:27.815Z,4.10
2023-02-05T15:39:06.753Z,4.30
2023-02-05T15:41:45.170Z,4.30
2023-02-05T15:44:22.826Z,4.03
2023-02-05T15:46:52.496Z,4.23
2023-02-05T15:49:26.410Z,4.10
2023-02-05T15:51:53.919Z,4.53
2023-02-05T15:54:21.936Z,4.37
2023-02-05T15:56:52.326Z,4.90
2023-02-05T15:59:24.169Z,4.10
2023-02-05T16:02:01.760Z,4.40
2023-02-05T16:04:31.663Z,4.70
2023-02-05T16:06:59.994Z,5.23
2023-02-05T16:09:29.109Z,4.33
2023-02-05T16:11:57.039Z,4.27
2023-02-05T16:14:26.334Z,4.53
2023-02-05T16:17:04.109Z,4.70
2023-02-05T16:19:36.929Z,4.80
2023-02-05T16:22:18.532Z,5.03
2023-02-05T16:24:49.571Z,5.03
2023-02-05T16:27:21.192Z,6.00
2023-02-05T16:29:53.179Z,7.87
2023-02-05T16:32:29.104Z,6.53
2023-02-05T16:34:56.894Z,5.20
2023-02-05T16:37:31.222Z,5.43
2023-02-05T16:40:01.447Z,5.50
2023-02-05T16:42:34.086Z,5.63
2023-02-05T16:45:18.520Z,5.67
2023-02-05T16:48:23.207Z,5.33
2023-02-05T16:50:52.081Z,4.90
2023-02-05T16:53:24.041Z,5.17
2023-02-05T16:55:58.142Z,5.13
2023-02-05T16:58:28.940Z,5.63
2023-02-05T17:00:59.016Z,5.67
2023-02-05T17:03:34.302Z,4.70
2023-02-05T17:06:04.051Z,6.37
2023-02-05T17:08:34.272Z,5.17
2023-02-05T17:11:04.477Z,7.20
2023-02-05T17:13:40.555Z,9.00
2023-02-05T17:16:35.289Z,15.23
2023-02-05T17:19:06.324Z,27.07
2023-02-05T17:21:34.949Z,29.07
2023-02-05T17:24:05.914Z,35.17
2023-02-05T17:26:36.126Z,44.60
2023-02-05T17:29:07.536Z,30.10
2023-02-05T17:31:38.255Z,21.97
2023-02-05T17:34:07.566Z,16.27
2023-02-05T17:36:35.081Z,10.27
2023-02-05T17:39:02.580Z,8.20
2023-02-05T17:41:53.900Z,7.87
2023-02-05T17:44:21.360Z,7.53
2023-02-05T17:46:48.821Z,6.50
2023-02-05T17:49:17.601Z,8.03
2023-02-05T17:51:45.031Z,8.37
2023-02-05T17:54:14.477Z,12.67
2023-02-05T17:56:44.274Z,12.73
2023-02-05T17:59:12.784Z,12.10
2023-02-05T18:01:40.238Z,18.43
2023-02-05T18:04:08.860Z,21.60
2023-02-05T18:06:38.413Z,17.73
2023-02-05T18:09:06.628Z,24.97
2023-02-05T18:11:34.433Z,12.60
2023-02-05T18:14:02.113Z,15.43
2023-02-05T18:16:29.689Z,11.60
2023-02-05T18:18:57.216Z,13.30
2023-02-05T18:21:24.980Z,31.03
2023-02-05T18:23:53.818Z,36.70
2023-02-05T18:26:21.822Z,32.43
2023-02-05T18:28:49.882Z,29.57
2023-02-05T18:31:17.565Z,34.60
2023-02-05T18:33:45.140Z,33.07
2023-02-05T18:36:14.663Z,18.90
2023-02-05T18:38:43.879Z,9.73
2023-02-05T18:41:14.601Z,9.50
2023-02-05T18:43:42.785Z,10.53
2023-02-05T18:46:12.552Z,15.27
2023-02-05T18:48:40.963Z,17.93
2023-02-05T18:51:10.380Z,14.60
2023-02-05T18:53:39.334Z,11.67
2023-02-05T18:56:09.469Z,11.80
2023-02-05T18:58:38.307Z,12.73
2023-02-05T19:01:10.157Z,11.43
2023-02-05T19:03:38.811Z,11.23
2023-02-05T19:06:06.757Z,13.10
2023-02-05T19:08:34.270Z,14.60
2023-02-05T19:11:06.800Z,20.33
2023-02-05T19:13:36.294Z,20.63
2023-02-05T19:16:07.387Z,17.07
2023-02-05T19:18:34.961Z,15.67
2023-02-05T19:21:06.585Z,13.53
2023-02-05T19:23:34.521Z,13.53
2023-02-05T19:26:04.081Z,16.27
2023-02-05T19:28:32.687Z,12.03
2023-02-05T19:31:03.495Z,13.00
2023-02-05T19:33:32.874Z,12.20
2023-02-05T19:36:01.004Z,15.50
2023-02-05T19:38:29.003Z,11.37
2023-02-05T19:40:56.483Z,12.10
2023-02-05T19:43:24.035Z,14.83
2023-02-05T19:45:51.524Z,16.53
2023-02-05T19:48:19.025Z,17.40
2023-02-05T19:50:47.837Z,20.40
2023-02-05T19:53:16.697Z,16.73
2023-02-05T19:55:44.176Z,17.83
2023-02-05T19:58:12.615Z,18.30
2023-02-05T20:00:40.132Z,25.30
2023-02-05T20:03:07.608Z,20.00
2023-02-05T20:05:37.184Z,18.83
2023-02-05T20:08:06.101Z,17.20
2023-02-05T20:10:33.853Z,17.57
2023-02-05T20:13:01.478Z,19.47
2023-02-05T20:15:28.942Z,18.43
2023-02-05T20:17:58.446Z,17.67
2023-02-05T20:20:33.509Z,16.70
2023-02-05T20:23:01.400Z,18.17
2023-02-05T20:25:30.239Z,17.20
2023-02-05T20:27:57.802Z,15.90
2023-02-05T20:30:43.138Z,17.00
2023-02-05T20:33:10.730Z,15.67
2023-02-05T20:35:39.082Z,17.33
2023-02-05T20:38:06.949Z,14.70
2023-02-05T20:40:35.988Z,16.33
2023-02-05T20:43:04.658Z,16.93
2023-02-05T20:45:33.740Z,19.77
2023-02-05T20:48:01.351Z,21.47
2023-02-05T20:50:28.827Z,18.80
2023-02-05T20:52:56.380Z,20.73
2023-02-05T20:55:23.856Z,14.97
2023-02-05T20:57:52.665Z,18.00
2023-02-05T21:00:22.304Z,17.47
2023-02-05T21:02:49.770Z,15.67
2023-02-05T21:05:17.270Z,17.93
2023-02-05T21:07:44.809Z,17.17
2023-02-05T21:10:12.281Z,16.90
2023-02-05T21:12:39.746Z,12.70
2023-02-05T21:15:09.425Z,17.93
2023-02-05T21:17:37.319Z,14.30
2023-02-05T21:20:05.160Z,11.43
2023-02-05T21:22:32.613Z,12.03
2023-02-05T21:25:00.101Z,10.77
2023-02-05T21:27:27.649Z,9.87
2023-02-05T21:29:55.101Z,8.90
2023-02-05T21:32:23.939Z,11.20
2023-02-05T21:34:52.131Z,15.30
2023-02-05T21:37:19.629Z,13.90
2023-02-05T21:39:48.046Z,10.87
2023-02-05T21:42:15.533Z,13.60
2023-02-05T21:44:44.127Z,15.40
2023-02-05T21:47:11.602Z,14.80
2023-02-05T21:49:40.386Z,14.20
2023-02-05T21:52:07.855Z,15.50
2023-02-05T21:54:35.302Z,15.70
2023-02-05T21:57:02.760Z,13.17
2023-02-05T21:59:30.209Z,11.87
2023-02-05T22:01:57.748Z,15.43
2023-02-05T22:04:25.269Z,13.20
2023-02-05T22:06:54.050Z,9.77
2023-02-05T22:09:21.690Z,14.43
2023-02-05T22:11:50.527Z,19.50
2023-02-05T22:14:18.141Z,14.73
2023-02-05T22:16:45.732Z,16.80
2023-02-05T22:19:13.233Z,16.57
2023-02-05T22:21:42.326Z,16.63
2023-02-05T22:24:15.022Z,15.63
2023-02-05T22:26:42.934Z,17.20
2023-02-05T22:29:13.386Z,18.03
2023-02-05T22:31:41.081Z,15.27
2023-02-05T22:34:08.612Z,16.33
2023-02-05T22:36:36.357Z,17.10
2023-02-05T22:39:05.485Z,13.03
2023-02-05T22:41:36.347Z,9.93
2023-02-05T22:44:05.407Z,10.30
2023-02-05T22:46:34.728Z,8.27
2023-02-05T22:49:03.377Z,10.73
2023-02-05T22:51:32.876Z,9.57
2023-02-05T22:54:00.625Z,8.97
2023-02-05T22:56:28.651Z,9.10
2023-02-05T22:58:57.902Z,9.17
2023-02-05T23:01:27.893Z,8.57
2023-02-05T23:03:56.288Z,10.87
2023-02-05T23:06:26.116Z,11.27
2023-02-05T23:08:58.915Z,11.83
2023-02-05T23:11:27.823Z,10.77
2023-02-05T23:13:57.426Z,12.67
2023-02-05T23:16:26.889Z,12.40
2023-02-05T23:18:58.046Z,12.60
2023-02-05T23:21:27.797Z,15.37
2023-02-05T23:23:55.374Z,16.03
2023-02-05T23:26:24.603Z,15.90
2023-02-05T23:28:53.004Z,13.87
2023-02-05T23:31:22.687Z,13.97
2023-02-05T23:33:50.857Z,12.43
2023-02-05T23:36:18.877Z,8.30
2023-02-05T23:38:46.420Z,8.63
2023-02-05T23:41:14.045Z,8.93
2023-02-05T23:43:41.746Z,8.80
2023-02-05T23:46:09.586Z,10.07
2023-02-05T23:48:38.578Z,10.17
2023-02-05T23:51:06.064Z,9.50
2023-02-05T23:53:33.529Z,10.83
2023-02-05T23:56:01.761Z,10.20
2023-02-05T23:58:29.233Z,8.40
